Galesville, WI (54630)

8:49 AM CST on January 23, 2017 (GMT -0600)
Sacia Orchards | | Change Station
Active Advisory: Winter Storm Watch

Elev 200 ft 44.10 °N, 91.39 °W | Updated 34 seconds ago

Overcast
Overcast
33.2 °F
Feels Like 33 °F
N
2.0
Wind Variable Wind from East

Today
High -- | Low -- °F
--% Chance of Precip.
Yesterday
High -- | Low -- °F
Precip. -- in
Pressure 29.83 in
Visibility 2.0 miles
Clouds Overcast 900 ft
Windchill 33 °F
Dew Point 30 °F
Humidity 88%
Rainfall 0.00 in
Snow Depth Not available.
7:31 AM 5:03 PM
Waning Crescent, 18% visible
SPECI KLSE 231439Z 00000KT 2SM BR OVC009 03/01 A2983 RMK AO2 T00280011
Pressure 29.83 in
Visibility 2.0 miles
Clouds Overcast 900 ft
Windchill 33 °F
Dew Point 30 °F
Humidity 88%
Rainfall 0.00 in
Snow Depth Not available.
7:31 AM 5:03 PM
Waning Crescent, 18% visible
SPECI KLSE 231439Z 00000KT 2SM BR OVC009 03/01 A2983 RMK AO2 T00280011

Get Your Daily Forecast Email!

Thanks for signing up!

Be on the lookout for a verification email in your inbox.

You'll start receiving the daily forecast at 8 AM.

×

10-Day Weather Forecast

Almanac

Astronomy

Jan. 23, 2017 Rise Set
Actual Time
Civil Twilight
Nautical Twilight
Astronomical Twilight
Moon
Length of Visible Light
Length of Day
Tomorrow will be .
, % of the Moon is Illuminated

Today's Extremes

State Highs State Lows

Community

WunderPhotos

Upload Photos

1,962,540 photos uploaded!

WunderBlog® & News

Nearby

Air Quality

  Air Quality AQ Index Pollutant
Not available.

Snow Depth

Station Depth Elevation

Earthquake Activity

City Distance Mag. Time & Date
Minimum magnitude displayed is 2.5.

Coastal Water Temperatures

Place Temperature

Stations

Nearby Weather Stations

Station Location Temp. Windchill Dew Point Humidity Wind Precip. Elev Updated Type
                   

Watches & Warnings

Winter Storm Watch
Issued: 4:13 AM CST Jan. 23, 2017 – National Weather Service

... Winter Storm Watch in effect from 3 PM Tuesday afternoon
through 3 PM Wednesday afternoon...

The National Weather Service in La Crosse has issued a Winter
Storm Watch... which is in effect from Tuesday afternoon through
Wednesday afternoon.

* Accumulating snow late Tuesday afternoon through Wednesday
afternoon.

* Snow amounts of 4 to 7 inches are expected but higher totals
are quite possible.

* Confidence is good on the location of the snowfall but lower on
the snow totals.

* Hazardous driving conditions possible... especially due to the
expected wet nature of the snow.

Precautionary/preparedness actions...

A Winter Storm Watch means there is potential for significant
snow accumulation that may impact travel. Continue to monitor the
latest forecasts.